createdAt,value
2023-04-01T00:00:07.905Z,7.63
2023-04-01T00:01:11.110Z,7.65
2023-04-01T00:02:12.921Z,7.65
2023-04-01T00:03:14.870Z,7.68
2023-04-01T00:04:17.165Z,7.70
2023-04-01T00:05:18.955Z,7.74
2023-04-01T00:06:20.783Z,7.77
2023-04-01T00:07:22.569Z,7.80
2023-04-01T00:08:24.908Z,7.82
2023-04-01T00:09:26.722Z,7.80
2023-04-01T00:10:31.772Z,7.78
2023-04-01T00:11:33.959Z,7.77
2023-04-01T00:12:36.524Z,7.78
2023-04-01T00:13:38.371Z,7.77
2023-04-01T00:14:40.976Z,7.74
2023-04-01T00:15:42.949Z,7.68
2023-04-01T00:16:45.004Z,7.69
2023-04-01T00:17:46.907Z,7.71
2023-04-01T00:18:49.512Z,7.76
2023-04-01T00:19:51.362Z,7.82
2023-04-01T00:20:53.905Z,7.88
2023-04-01T00:21:55.782Z,7.93
2023-04-01T00:22:57.798Z,7.92
2023-04-01T00:24:00.442Z,7.83
2023-04-01T00:25:02.325Z,7.77
2023-04-01T00:26:04.353Z,7.77
2023-04-01T00:27:07.001Z,7.78
2023-04-01T00:28:08.910Z,7.83
2023-04-01T00:29:10.795Z,7.87
2023-04-01T00:30:12.829Z,7.94
2023-04-01T00:31:15.754Z,7.98
2023-04-01T00:32:17.976Z,7.96
2023-04-01T00:33:19.729Z,7.92
2023-04-01T00:34:21.703Z,7.86
2023-04-01T00:35:23.625Z,7.79
2023-04-01T00:36:25.372Z,7.73
2023-04-01T00:37:27.663Z,7.68
2023-04-01T00:38:29.470Z,7.71
2023-04-01T00:39:32.467Z,7.69
2023-04-01T00:40:38.405Z,7.69
2023-04-01T00:41:40.191Z,7.66
2023-04-01T00:42:42.019Z,7.63
2023-04-01T00:43:46.183Z,7.67
2023-04-01T00:44:55.136Z,7.66
2023-04-01T00:45:57.219Z,7.61
2023-04-01T00:46:59.005Z,7.58
2023-04-01T00:48:02.839Z,7.59
2023-04-01T00:49:04.590Z,7.58
2023-04-01T00:50:06.703Z,7.55
2023-04-01T00:51:15.380Z,7.58
2023-04-01T00:52:20.211Z,7.58
2023-04-01T00:53:22.794Z,7.57
2023-04-01T00:54:26.766Z,7.57
2023-04-01T00:55:31.505Z,7.61
2023-04-01T00:56:36.822Z,7.64
2023-04-01T00:57:38.925Z,7.63
2023-04-01T00:58:42.707Z,7.66
2023-04-01T00:59:46.285Z,7.70
2023-04-01T01:00:49.775Z,7.71
2023-04-01T01:01:51.661Z,7.67
2023-04-01T01:02:53.968Z,7.61
2023-04-01T01:03:55.797Z,7.62
2023-04-01T01:04:57.556Z,7.60
2023-04-01T01:06:05.321Z,7.56
2023-04-01T01:07:19.054Z,7.56
2023-04-01T01:08:41.116Z,7.59
2023-04-01T01:09:48.656Z,7.63
2023-04-01T01:10:51.351Z,7.66
2023-04-01T01:12:02.384Z,7.69
2023-04-01T01:13:10.139Z,7.72
2023-04-01T01:14:15.419Z,7.72
2023-04-01T01:15:26.491Z,7.73
2023-04-01T01:16:30.551Z,7.75
2023-04-01T01:17:44.582Z,7.77
2023-04-01T01:19:06.405Z,7.74
2023-04-01T01:20:27.056Z,7.72
2023-04-01T01:21:47.435Z,7.66
2023-04-01T01:23:07.610Z,7.55
2023-04-01T01:24:18.796Z,7.51
2023-04-01T01:25:21.167Z,7.52
2023-04-01T01:26:40.976Z,7.51
2023-04-01T01:27:46.242Z,7.51
2023-04-01T01:29:06.635Z,7.53
2023-04-01T01:30:17.340Z,7.59
2023-04-01T01:31:24.433Z,7.61
2023-04-01T01:32:46.634Z,7.63
2023-04-01T01:34:08.229Z,7.67
2023-04-01T01:35:15.696Z,7.68
2023-04-01T01:36:19.430Z,7.67
2023-04-01T01:37:23.498Z,7.60
2023-04-01T01:38:28.071Z,7.59
2023-04-01T01:39:32.892Z,7.58
2023-04-01T01:40:35.793Z,7.60
2023-04-01T01:41:38.957Z,7.59
2023-04-01T01:42:44.602Z,7.55
2023-04-01T01:43:49.764Z,7.49
2023-04-01T01:44:52.384Z,7.50
2023-04-01T01:45:56.829Z,7.55
2023-04-01T01:46:58.962Z,7.58
2023-04-01T01:48:02.289Z,7.58
2023-04-01T01:49:04.920Z,7.56
2023-04-01T01:50:07.480Z,7.55
2023-04-01T01:51:09.941Z,7.56
2023-04-01T01:52:12.598Z,7.61
2023-04-01T01:53:15.184Z,7.67
2023-04-01T01:54:18.032Z,7.70
2023-04-01T01:55:25.266Z,7.69
2023-04-01T01:56:28.376Z,7.70
2023-04-01T01:57:32.769Z,7.74
2023-04-01T01:58:41.589Z,7.80
2023-04-01T01:59:44.313Z,7.85
2023-04-01T02:00:49.842Z,7.88
2023-04-01T02:01:53.056Z,7.91
2023-04-01T02:02:55.169Z,7.94
2023-04-01T02:03:57.991Z,7.94
2023-04-01T02:05:00.623Z,7.95
2023-04-01T02:06:03.445Z,7.93
2023-04-01T02:07:07.660Z,7.92
2023-04-01T02:08:13.198Z,7.88
2023-04-01T02:09:15.411Z,7.87
2023-04-01T02:10:17.641Z,7.81
2023-04-01T02:11:21.252Z,7.78
2023-04-01T02:12:24.110Z,7.73
2023-04-01T02:13:32.699Z,7.74
2023-04-01T02:14:43.051Z,7.73
2023-04-01T02:15:48.392Z,7.71
2023-04-01T02:16:53.786Z,7.70
2023-04-01T02:17:58.232Z,7.70
2023-04-01T02:19:01.419Z,7.68
2023-04-01T02:20:06.632Z,7.72
2023-04-01T02:21:09.272Z,7.77
2023-04-01T02:22:13.998Z,7.82
2023-04-01T02:23:15.870Z,7.87
2023-04-01T02:24:17.698Z,7.89
2023-04-01T02:25:23.036Z,7.87
2023-04-01T02:26:26.889Z,7.87
2023-04-01T02:27:29.449Z,7.88
2023-04-01T02:28:32.699Z,7.89
2023-04-01T02:29:34.567Z,7.91
2023-04-01T02:30:38.158Z,7.93
2023-04-01T02:31:40.355Z,7.93
2023-04-01T02:32:42.810Z,7.90
2023-04-01T02:33:46.275Z,7.77
2023-04-01T02:34:49.461Z,7.70
2023-04-01T02:35:51.430Z,7.59
2023-04-01T02:36:54.541Z,7.54
2023-04-01T02:37:57.085Z,7.49
2023-04-01T02:39:03.303Z,7.45
2023-04-01T02:40:07.974Z,7.46
2023-04-01T02:41:09.837Z,7.49
2023-04-01T02:42:11.902Z,7.53
2023-04-01T02:43:13.968Z,7.54
2023-04-01T02:44:16.420Z,7.55
2023-04-01T02:45:18.272Z,7.53
2023-04-01T02:46:20.154Z,7.53
2023-04-01T02:47:21.983Z,7.54
2023-04-01T02:48:23.761Z,7.59
2023-04-01T02:49:25.623Z,7.64
2023-04-01T02:50:27.451Z,7.69
2023-04-01T02:51:30.305Z,7.69
2023-04-01T02:52:33.509Z,7.67
2023-04-01T02:53:36.060Z,7.67
2023-04-01T02:54:37.761Z,7.64
2023-04-01T02:55:39.597Z,7.58
2023-04-01T02:56:41.440Z,7.59
2023-04-01T02:57:43.192Z,7.58
2023-04-01T02:58:44.980Z,7.61
2023-04-01T02:59:46.898Z,7.66
2023-04-01T03:00:48.726Z,7.70
2023-04-01T03:01:50.564Z,7.74
2023-04-01T03:02:52.430Z,7.73
2023-04-01T03:03:54.312Z,7.71
2023-04-01T03:04:56.045Z,7.71
2023-04-01T03:05:59.955Z,7.72
2023-04-01T03:07:01.845Z,7.74
2023-04-01T03:08:03.990Z,7.76
2023-04-01T03:09:05.745Z,7.76
2023-04-01T03:10:08.178Z,7.80
2023-04-01T03:11:11.210Z,7.79
2023-04-01T03:12:13.155Z,7.75
2023-04-01T03:13:14.948Z,7.72
2023-04-01T03:14:16.874Z,7.69
2023-04-01T03:15:18.676Z,7.68
2023-04-01T03:16:20.526Z,7.65
2023-04-01T03:17:22.444Z,7.59
2023-04-01T03:18:24.263Z,7.55
2023-04-01T03:19:26.297Z,7.53
2023-04-01T03:20:28.049Z,7.47
2023-04-01T03:21:29.875Z,7.38
2023-04-01T03:22:31.920Z,7.39
2023-04-01T03:23:33.747Z,7.45
2023-04-01T03:24:35.553Z,7.43
2023-04-01T03:25:37.303Z,7.44
2023-04-01T03:26:39.322Z,7.44
2023-04-01T03:27:41.370Z,7.47
2023-04-01T03:28:43.222Z,7.47
2023-04-01T03:29:44.975Z,7.49
2023-04-01T03:30:46.775Z,7.46
2023-04-01T03:31:48.521Z,7.43
2023-04-01T03:32:50.669Z,7.39
2023-04-01T03:33:52.483Z,7.38
2023-04-01T03:34:54.211Z,7.40
2023-04-01T03:35:56.080Z,7.40
2023-04-01T03:36:58.383Z,7.44
2023-04-01T03:38:00.418Z,7.40
2023-04-01T03:39:02.276Z,7.39
2023-04-01T03:40:04.282Z,7.38
2023-04-01T03:41:06.270Z,7.35
2023-04-01T03:42:08.483Z,7.37
2023-04-01T03:43:11.274Z,7.40
2023-04-01T03:44:13.142Z,7.43
2023-04-01T03:45:14.939Z,7.44
2023-04-01T03:46:20.207Z,7.43
2023-04-01T03:47:22.297Z,7.47
2023-04-01T03:48:24.129Z,7.50
2023-04-01T03:49:26.264Z,7.46
2023-04-01T03:50:28.785Z,7.40
2023-04-01T03:51:31.888Z,7.43
2023-04-01T03:52:33.965Z,7.44
2023-04-01T03:53:35.854Z,7.46
2023-04-01T03:54:38.072Z,7.48
2023-04-01T03:55:40.807Z,7.46
2023-04-01T03:56:42.660Z,7.47
2023-04-01T03:57:44.481Z,7.43
2023-04-01T03:58:46.319Z,7.43
2023-04-01T03:59:48.065Z,7.45
2023-04-01T04:00:49.856Z,7.49
2023-04-01T04:01:51.774Z,7.44
2023-04-01T04:02:53.707Z,7.43
2023-04-01T04:03:55.711Z,7.45
2023-04-01T04:04:57.556Z,7.47
2023-04-01T04:05:59.371Z,7.50
2023-04-01T04:07:01.103Z,7.51
2023-04-01T04:08:02.945Z,7.52
2023-04-01T04:09:04.799Z,7.54
2023-04-01T04:10:07.052Z,7.56
2023-04-01T04:11:09.060Z,7.52
2023-04-01T04:12:10.774Z,7.42
2023-04-01T04:13:12.516Z,7.37
2023-04-01T04:14:14.294Z,7.38
2023-04-01T04:15:16.485Z,7.38
2023-04-01T04:16:18.685Z,7.32
2023-04-01T04:17:20.713Z,7.20
2023-04-01T04:18:22.462Z,7.17
2023-04-01T04:19:24.278Z,7.16
2023-04-01T04:20:26.077Z,7.17
2023-04-01T04:21:27.800Z,7.19
2023-04-01T04:22:29.586Z,7.20
2023-04-01T04:23:33.125Z,7.26
2023-04-01T04:24:37.850Z,7.28
2023-04-01T04:25:39.748Z,7.28
2023-04-01T04:26:41.594Z,7.27
2023-04-01T04:27:43.489Z,7.25
2023-04-01T04:28:45.411Z,7.28
2023-04-01T04:29:47.248Z,7.34
2023-04-01T04:30:48.982Z,7.38
2023-04-01T04:31:50.844Z,7.43
2023-04-01T04:32:52.689Z,7.44
2023-04-01T04:33:54.539Z,7.48
2023-04-01T04:34:56.364Z,7.53
2023-04-01T04:35:59.033Z,7.57
2023-04-01T04:37:01.245Z,7.59
2023-04-01T04:38:03.031Z,7.61
2023-04-01T04:39:04.804Z,7.63
2023-04-01T04:40:06.993Z,7.67
2023-04-01T04:41:13.887Z,7.61
2023-04-01T04:42:15.686Z,7.50
2023-04-01T04:43:18.312Z,7.45
2023-04-01T04:44:20.074Z,7.45
2023-04-01T04:45:21.962Z,7.44
2023-04-01T04:46:24.139Z,7.45
2023-04-01T04:47:25.996Z,7.39
2023-04-01T04:48:27.767Z,7.37
2023-04-01T04:49:29.523Z,7.33
2023-04-01T04:50:31.538Z,7.36
2023-04-01T04:51:37.009Z,7.45
2023-04-01T04:52:38.780Z,7.49
2023-04-01T04:53:40.692Z,7.49
2023-04-01T04:54:42.498Z,7.51
2023-04-01T04:55:50.533Z,7.50
2023-04-01T04:56:53.085Z,7.52
2023-04-01T04:57:55.284Z,7.54
2023-04-01T04:58:57.155Z,7.54
2023-04-01T04:59:58.948Z,7.57
2023-04-01T05:01:01.316Z,7.62
2023-04-01T05:02:03.177Z,7.62
2023-04-01T05:03:05.094Z,7.57
2023-04-01T05:04:07.297Z,7.53
2023-04-01T05:05:09.170Z,7.51
2023-04-01T05:06:11.723Z,7.52
2023-04-01T05:07:13.520Z,7.53
2023-04-01T05:08:15.293Z,7.56
2023-04-01T05:09:17.079Z,7.56
2023-04-01T05:10:18.894Z,7.50
2023-04-01T05:11:20.861Z,7.47
2023-04-01T05:12:22.652Z,7.44
2023-04-01T05:13:24.481Z,7.42
2023-04-01T05:14:26.226Z,7.46
2023-04-01T05:15:28.138Z,7.48
2023-04-01T05:16:30.051Z,7.53
2023-04-01T05:17:31.950Z,7.58
2023-04-01T05:18:33.861Z,7.61
2023-04-01T05:19:35.967Z,7.62
2023-04-01T05:20:37.835Z,7.58
2023-04-01T05:21:39.643Z,7.58
2023-04-01T05:22:41.475Z,7.58
2023-04-01T05:23:44.098Z,7.59
2023-04-01T05:24:48.463Z,7.54
2023-04-01T05:25:52.132Z,7.54
2023-04-01T05:26:55.841Z,7.55
2023-04-01T05:27:58.669Z,7.56
2023-04-01T05:29:00.589Z,7.56
2023-04-01T05:30:02.551Z,7.60
2023-04-01T05:31:04.620Z,7.62
2023-04-01T05:32:06.427Z,7.62
2023-04-01T05:33:08.333Z,7.57
2023-04-01T05:34:10.116Z,7.57
2023-04-01T05:35:11.999Z,7.58
2023-04-01T05:36:15.800Z,7.61
2023-04-01T05:37:17.847Z,7.59
2023-04-01T05:38:19.584Z,7.59
2023-04-01T05:39:21.600Z,7.60
2023-04-01T05:40:23.452Z,7.63
2023-04-01T05:41:25.768Z,7.65
2023-04-01T05:42:27.646Z,7.67
2023-04-01T05:43:29.430Z,7.68
2023-04-01T05:44:31.300Z,7.67
2023-04-01T05:45:33.243Z,7.61
2023-04-01T05:46:35.184Z,7.59
2023-04-01T05:47:37.013Z,7.56
2023-04-01T05:48:38.921Z,7.51
2023-04-01T05:49:41.290Z,7.49
2023-04-01T05:50:43.417Z,7.48
2023-04-01T05:51:45.217Z,7.46
2023-04-01T05:52:47.106Z,7.45
2023-04-01T05:53:48.940Z,7.47
2023-04-01T05:54:50.803Z,7.54
2023-04-01T05:55:52.630Z,7.60
2023-04-01T05:56:54.484Z,7.62
2023-04-01T05:57:56.332Z,7.67
2023-04-01T05:58:58.112Z,7.69
2023-04-01T05:59:59.864Z,7.71
2023-04-01T06:01:09.540Z,7.76
2023-04-01T06:02:13.093Z,7.75
2023-04-01T06:03:15.044Z,7.75
2023-04-01T06:04:18.294Z,7.75
2023-04-01T06:05:21.899Z,7.73
2023-04-01T06:06:30.207Z,7.69
2023-04-01T06:07:32.232Z,7.68
2023-04-01T06:08:34.070Z,7.67
2023-04-01T06:09:36.236Z,7.69
2023-04-01T06:10:44.456Z,7.74
2023-04-01T06:11:46.550Z,7.77
2023-04-01T06:12:54.356Z,7.76
2023-04-01T06:14:01.656Z,7.75
2023-04-01T06:15:12.263Z,7.72
2023-04-01T06:16:23.654Z,7.71
2023-04-01T06:17:28.622Z,7.74
2023-04-01T06:18:53.770Z,7.80
2023-04-01T06:20:28.257Z,7.82
2023-04-01T06:21:36.142Z,7.75
2023-04-01T06:22:56.425Z,7.75
2023-04-01T06:24:06.577Z,7.78
2023-04-01T06:25:17.161Z,7.82
2023-04-01T06:26:38.050Z,7.88
2023-04-01T06:27:52.450Z,7.88
2023-04-01T06:28:54.236Z,7.90
2023-04-01T06:29:56.289Z,7.93
2023-04-01T06:31:04.072Z,7.99
2023-04-01T06:32:05.992Z,8.02
2023-04-01T06:33:27.296Z,8.04
2023-04-01T06:34:31.980Z,8.08
2023-04-01T06:35:33.969Z,8.11
2023-04-01T06:37:05.260Z,8.14
2023-04-01T06:38:18.598Z,8.17
2023-04-01T06:39:29.438Z,8.19
2023-04-01T06:40:49.933Z,8.18
2023-04-01T06:42:10.489Z,8.18
2023-04-01T06:43:35.582Z,8.14
2023-04-01T06:44:49.922Z,8.09
2023-04-01T06:45:52.137Z,8.08
2023-04-01T06:47:01.192Z,8.11
2023-04-01T06:48:05.826Z,8.17
2023-04-01T06:49:27.884Z,8.19
2023-04-01T06:50:42.575Z,8.23
2023-04-01T06:51:46.925Z,8.28
2023-04-01T06:53:06.787Z,8.32
2023-04-01T06:54:11.560Z,8.36
2023-04-01T06:55:39.033Z,8.39
2023-04-01T06:56:43.942Z,8.36
2023-04-01T06:57:48.609Z,8.29
2023-04-01T06:59:05.672Z,8.26
2023-04-01T07:00:15.113Z,8.29
2023-04-01T07:01:35.562Z,8.35
2023-04-01T07:02:44.041Z,8.41
2023-04-01T07:03:57.268Z,8.46
2023-04-01T07:04:59.809Z,8.48
2023-04-01T07:06:05.108Z,8.45
2023-04-01T07:07:12.425Z,8.43
2023-04-01T07:08:23.851Z,8.45
2023-04-01T07:09:38.285Z,8.48
2023-04-01T07:10:49.603Z,8.52
2023-04-01T07:11:52.091Z,8.56
2023-04-01T07:12:56.433Z,8.61
2023-04-01T07:14:03.756Z,8.67
2023-04-01T07:15:13.202Z,8.69
2023-04-01T07:16:31.507Z,8.66
2023-04-01T07:17:36.859Z,8.70
2023-04-01T07:18:42.943Z,8.72
2023-04-01T07:20:20.179Z,8.69
2023-04-01T07:21:28.087Z,8.70
2023-04-01T07:22:36.463Z,8.70
2023-04-01T07:23:40.496Z,8.68
2023-04-01T07:24:43.811Z,8.68
2023-04-01T07:25:46.939Z,8.70
2023-04-01T07:26:51.572Z,8.73
2023-04-01T07:28:04.066Z,8.78
2023-04-01T07:29:07.189Z,8.79
2023-04-01T07:30:15.786Z,8.80
2023-04-01T07:31:37.798Z,8.77
2023-04-01T07:32:45.638Z,8.80
2023-04-01T07:33:53.936Z,8.80
2023-04-01T07:35:04.629Z,8.79
2023-04-01T07:36:35.558Z,8.85
2023-04-01T07:37:55.713Z,8.85
2023-04-01T07:39:11.702Z,8.88
2023-04-01T07:40:21.229Z,8.90
2023-04-01T07:41:29.895Z,9.01
2023-04-01T07:42:43.686Z,9.08
2023-04-01T07:44:00.648Z,9.11
2023-04-01T07:45:08.200Z,9.13
2023-04-01T07:46:27.839Z,9.15
2023-04-01T07:47:36.316Z,9.16
2023-04-01T07:48:50.545Z,9.17
2023-04-01T07:49:59.456Z,9.18
2023-04-01T07:51:01.304Z,9.20
2023-04-01T07:52:10.437Z,9.24
2023-04-01T07:53:30.465Z,9.25
2023-04-01T07:54:50.544Z,9.21
2023-04-01T07:55:55.326Z,9.20
2023-04-01T07:57:03.267Z,9.18
2023-04-01T07:58:15.919Z,9.16
2023-04-01T07:59:28.906Z,9.15
2023-04-01T08:00:30.688Z,9.16
2023-04-01T08:01:38.484Z,9.17
2023-04-01T08:02:49.150Z,9.19
2023-04-01T08:03:57.289Z,9.18
2023-04-01T08:05:05.452Z,9.19
2023-04-01T08:06:07.299Z,9.17
2023-04-01T08:07:17.221Z,9.18
2023-04-01T08:08:30.819Z,9.20
2023-04-01T08:09:38.728Z,9.19
2023-04-01T08:10:56.480Z,9.21
2023-04-01T08:11:59.479Z,9.23
2023-04-01T08:13:07.546Z,9.22
2023-04-01T08:14:12.271Z,9.19
2023-04-01T08:15:23.179Z,9.20
2023-04-01T08:16:33.396Z,9.20
2023-04-01T08:17:47.554Z,9.20
2023-04-01T08:18:55.351Z,9.24
2023-04-01T08:20:03.675Z,9.24
2023-04-01T08:21:11.589Z,9.30
2023-04-01T08:22:19.011Z,9.33
2023-04-01T08:23:23.842Z,9.35
2023-04-01T08:24:26.270Z,9.38
2023-04-01T08:25:33.487Z,9.40
2023-04-01T08:26:47.393Z,9.39
2023-04-01T08:27:52.586Z,9.43
2023-04-01T08:28:58.728Z,9.45
2023-04-01T08:30:19.305Z,9.44
2023-04-01T08:31:30.715Z,9.40
2023-04-01T08:32:42.833Z,9.44
2023-04-01T08:33:47.680Z,9.44
2023-04-01T08:34:54.436Z,9.40
2023-04-01T08:35:59.925Z,9.38
2023-04-01T08:37:05.015Z,9.38
2023-04-01T08:38:19.659Z,9.38
2023-04-01T08:39:24.220Z,9.38
2023-04-01T08:40:36.986Z,9.40
2023-04-01T08:42:17.472Z,9.47
2023-04-01T08:43:51.512Z,9.50
2023-04-01T08:45:02.341Z,9.56
2023-04-01T08:46:04.890Z,9.62
2023-04-01T08:47:09.788Z,9.65
2023-04-01T08:48:14.264Z,9.66
2023-04-01T08:49:16.118Z,9.69
2023-04-01T08:50:27.907Z,9.72
2023-04-01T08:51:44.603Z,9.73
2023-04-01T08:53:08.026Z,9.78
2023-04-01T08:54:27.158Z,9.85
2023-04-01T08:55:36.270Z,9.89
2023-04-01T08:56:37.983Z,9.91
2023-04-01T08:57:52.658Z,9.91
2023-04-01T08:58:58.629Z,9.94
2023-04-01T09:00:06.524Z,9.97
2023-04-01T09:01:14.053Z,10.01
2023-04-01T09:02:34.461Z,10.08
2023-04-01T09:03:39.857Z,10.12
2023-04-01T09:04:53.637Z,10.13
2023-04-01T09:06:01.235Z,10.14
2023-04-01T09:07:14.806Z,10.13
2023-04-01T09:08:22.137Z,10.14
2023-04-01T09:09:26.622Z,10.15
2023-04-01T09:10:31.338Z,10.17
2023-04-01T09:11:45.295Z,10.21
2023-04-01T09:13:05.954Z,10.26
2023-04-01T09:14:22.982Z,10.28
2023-04-01T09:15:43.037Z,10.33
2023-04-01T09:16:57.371Z,10.38
2023-04-01T09:18:04.762Z,10.45
2023-04-01T09:19:10.073Z,10.49
2023-04-01T09:20:20.306Z,10.53
2023-04-01T09:21:40.857Z,10.56
2023-04-01T09:22:42.667Z,10.58
2023-04-01T09:24:03.110Z,10.56
2023-04-01T09:25:07.778Z,10.59
2023-04-01T09:26:09.510Z,10.58
2023-04-01T09:27:11.245Z,10.57
2023-04-01T09:28:13.173Z,10.59
2023-04-01T09:29:33.093Z,10.59
2023-04-01T09:30:42.701Z,10.56
2023-04-01T09:31:44.453Z,10.54
2023-04-01T09:33:06.557Z,10.52
2023-04-01T09:34:08.369Z,10.50
2023-04-01T09:35:22.895Z,10.47
2023-04-01T09:36:50.603Z,10.45
2023-04-01T09:37:58.215Z,10.46
2023-04-01T09:39:04.898Z,10.46
2023-04-01T09:40:15.497Z,10.47
2023-04-01T09:41:26.518Z,10.48
2023-04-01T09:42:43.843Z,10.50
2023-04-01T09:43:54.238Z,10.49
2023-04-01T09:44:56.100Z,10.46
2023-04-01T09:46:01.054Z,10.45
2023-04-01T09:47:06.068Z,10.46
2023-04-01T09:48:21.020Z,10.48
2023-04-01T09:49:22.764Z,10.46
2023-04-01T09:50:24.510Z,10.43
2023-04-01T09:51:29.381Z,10.42
2023-04-01T09:52:39.860Z,10.40
2023-04-01T09:53:53.923Z,10.40
2023-04-01T09:55:01.639Z,10.42
2023-04-01T09:56:04.833Z,10.46
2023-04-01T09:57:25.173Z,10.47
2023-04-01T09:58:53.204Z,10.46
2023-04-01T09:59:55.559Z,10.44
2023-04-01T10:01:16.205Z,10.44
2023-04-01T10:02:27.469Z,10.44
2023-04-01T10:03:44.307Z,10.46
2023-04-01T10:04:49.117Z,10.47
2023-04-01T10:05:59.843Z,10.50
2023-04-01T10:07:20.419Z,10.53
2023-04-01T10:08:33.970Z,10.57
2023-04-01T10:09:54.611Z,10.58
2023-04-01T10:11:15.082Z,10.58
2023-04-01T10:12:28.655Z,10.54
2023-04-01T10:13:33.520Z,10.54
2023-04-01T10:15:01.544Z,10.52
2023-04-01T10:16:03.457Z,10.54
2023-04-01T10:17:17.735Z,10.57
2023-04-01T10:18:25.697Z,10.61
2023-04-01T10:19:36.700Z,10.63
2023-04-01T10:20:57.294Z,10.64
2023-04-01T10:22:17.937Z,10.68
2023-04-01T10:23:23.420Z,10.73
2023-04-01T10:24:43.638Z,10.75
2023-04-01T10:25:57.492Z,10.77
2023-04-01T10:27:11.569Z,10.78
2023-04-01T10:28:31.796Z,10.78
2023-04-01T10:29:45.590Z,10.72
2023-04-01T10:30:56.512Z,10.72
2023-04-01T10:32:26.419Z,10.75
2023-04-01T10:33:33.988Z,10.83
2023-04-01T10:34:35.734Z,10.89
2023-04-01T10:35:50.247Z,10.95
2023-04-01T10:36:53.930Z,11.04
2023-04-01T10:38:14.206Z,11.09
2023-04-01T10:39:22.627Z,11.16
2023-04-01T10:40:26.531Z,11.18
2023-04-01T10:41:43.249Z,11.25
2023-04-01T10:42:56.368Z,11.31
2023-04-01T10:44:14.080Z,11.34
2023-04-01T10:45:15.984Z,11.30
2023-04-01T10:46:36.331Z,11.28
2023-04-01T10:47:41.837Z,11.24
2023-04-01T10:49:02.291Z,11.25
2023-04-01T10:50:06.838Z,11.28
2023-04-01T10:51:35.174Z,11.30
2023-04-01T10:52:55.777Z,11.32
2023-04-01T10:54:06.600Z,11.32
2023-04-01T10:55:27.129Z,11.33
2023-04-01T10:56:31.715Z,11.33
2023-04-01T10:57:36.655Z,11.32
2023-04-01T10:58:47.365Z,11.35
2023-04-01T11:00:08.571Z,11.39
2023-04-01T11:01:25.675Z,11.47
2023-04-01T11:02:46.415Z,11.59
2023-04-01T11:04:06.134Z,11.70
2023-04-01T11:05:37.460Z,11.77
2023-04-01T11:06:42.057Z,11.84
2023-04-01T11:08:11.588Z,11.86
2023-04-01T11:09:32.213Z,11.92
2023-04-01T11:10:52.636Z,11.88
2023-04-01T11:12:09.629Z,11.84
2023-04-01T11:13:17.704Z,11.81
2023-04-01T11:14:22.388Z,11.82
2023-04-01T11:15:27.206Z,11.79
2023-04-01T11:16:47.681Z,11.76
2023-04-01T11:18:01.434Z,11.69
2023-04-01T11:19:06.276Z,11.66
2023-04-01T11:20:34.420Z,11.67
2023-04-01T11:21:55.039Z,11.70
2023-04-01T11:23:15.321Z,11.71
2023-04-01T11:24:26.184Z,11.69
2023-04-01T11:25:57.263Z,11.65
2023-04-01T11:27:05.201Z,11.62
2023-04-01T11:28:09.702Z,11.59
2023-04-01T11:29:38.922Z,11.60
2023-04-01T11:30:55.643Z,11.61
2023-04-01T11:32:17.774Z,11.65
2023-04-01T11:33:24.097Z,11.70
2023-04-01T11:34:41.222Z,11.81
2023-04-01T11:36:01.310Z,11.87
2023-04-01T11:37:18.462Z,11.91
2023-04-01T11:38:30.713Z,11.92
2023-04-01T11:39:35.843Z,11.90
2023-04-01T11:40:43.588Z,11.88
2023-04-01T11:42:05.613Z,11.84
2023-04-01T11:43:33.046Z,11.81
2023-04-01T11:44:41.211Z,11.78
2023-04-01T11:45:53.098Z,11.77
2023-04-01T11:47:06.690Z,11.72
2023-04-01T11:48:23.481Z,11.65
2023-04-01T11:49:38.375Z,11.59
2023-04-01T11:50:55.467Z,11.54
2023-04-01T11:52:16.195Z,11.48
2023-04-01T11:53:36.840Z,11.56
2023-04-01T11:54:52.397Z,11.74
2023-04-01T11:55:57.133Z,11.96
2023-04-01T11:56:58.975Z,12.14
2023-04-01T11:58:27.120Z,12.30
2023-04-01T11:59:47.727Z,12.52
2023-04-01T12:00:52.704Z,12.81
2023-04-01T12:02:01.008Z,13.07
2023-04-01T12:03:21.474Z,13.32
2023-04-01T12:04:35.333Z,13.60
2023-04-01T12:05:47.419Z,13.77
2023-04-01T12:07:01.158Z,13.89
2023-04-01T12:08:14.531Z,14.05
2023-04-01T12:09:25.255Z,14.06
2023-04-01T12:10:39.080Z,14.16
2023-04-01T12:11:46.877Z,14.49
2023-04-01T12:13:02.113Z,14.78
2023-04-01T12:14:10.640Z,14.90
2023-04-01T12:15:24.387Z,14.82
2023-04-01T12:16:26.331Z,14.81
2023-04-01T12:17:46.579Z,14.67
2023-04-01T12:18:48.362Z,14.77
2023-04-01T12:19:56.529Z,14.73
2023-04-01T12:21:15.830Z,14.66
2023-04-01T12:22:32.553Z,14.86
2023-04-01T12:23:38.296Z,15.12
2023-04-01T12:24:43.032Z,15.10
2023-04-01T12:26:05.964Z,15.04
2023-04-01T12:27:26.350Z,14.83
2023-04-01T12:28:37.256Z,14.63
2023-04-01T12:29:39.048Z,14.57
2023-04-01T12:30:53.020Z,14.53
2023-04-01T12:31:54.873Z,14.64
2023-04-01T12:32:57.098Z,14.76
2023-04-01T12:34:01.971Z,14.87
2023-04-01T12:35:16.014Z,14.85
2023-04-01T12:36:20.952Z,14.79
2023-04-01T12:37:38.011Z,14.65
2023-04-01T12:38:58.527Z,14.67
2023-04-01T12:40:08.814Z,14.84
2023-04-01T12:41:11.552Z,15.03
2023-04-01T12:42:13.360Z,15.04
2023-04-01T12:43:35.322Z,14.96
2023-04-01T12:44:39.884Z,15.20
2023-04-01T12:46:00.628Z,15.36
2023-04-01T12:47:11.532Z,15.58
2023-04-01T12:48:19.477Z,15.71
2023-04-01T12:49:29.390Z,15.92
2023-04-01T12:50:31.155Z,16.11
2023-04-01T12:51:51.091Z,15.97
2023-04-01T12:53:04.466Z,15.91
2023-04-01T12:54:15.462Z,15.97
2023-04-01T12:55:20.753Z,16.06
2023-04-01T12:56:41.264Z,16.06
2023-04-01T12:57:54.979Z,16.12
2023-04-01T12:59:08.947Z,16.42
2023-04-01T13:00:16.901Z,16.59
2023-04-01T13:01:37.424Z,16.68
2023-04-01T13:02:47.562Z,16.64
2023-04-01T13:03:58.224Z,16.54
2023-04-01T13:05:16.778Z,16.39
2023-04-01T13:06:21.549Z,16.12
2023-04-01T13:07:35.656Z,15.90
2023-04-01T13:08:41.571Z,15.47
2023-04-01T13:10:01.434Z,15.35
2023-04-01T13:11:29.124Z,15.18
2023-04-01T13:12:33.895Z,15.02
2023-04-01T13:13:46.236Z,14.91
2023-04-01T13:15:12.950Z,14.81
2023-04-01T13:16:25.616Z,14.71
2023-04-01T13:17:35.790Z,14.72
2023-04-01T13:18:56.375Z,14.58
2023-04-01T13:20:18.752Z,14.53
2023-04-01T13:21:28.551Z,14.49
2023-04-01T13:22:36.441Z,14.27
2023-04-01T13:23:56.596Z,13.91
2023-04-01T13:25:12.225Z,13.82
2023-04-01T13:26:26.072Z,13.76
2023-04-01T13:27:51.064Z,13.80
2023-04-01T13:29:09.085Z,13.85
2023-04-01T13:30:29.219Z,13.85
2023-04-01T13:31:37.932Z,13.78
2023-04-01T13:32:49.447Z,13.74
2023-04-01T13:34:10.169Z,13.71
2023-04-01T13:35:17.720Z,13.74
2023-04-01T13:36:24.707Z,13.83
2023-04-01T13:37:45.534Z,13.87
2023-04-01T13:38:47.342Z,14.06
2023-04-01T13:39:49.196Z,14.13
2023-04-01T13:41:02.426Z,14.32
2023-04-01T13:42:08.563Z,14.48
2023-04-01T13:43:15.162Z,14.73
2023-04-01T13:44:37.184Z,14.95
2023-04-01T13:45:57.058Z,15.24
2023-04-01T13:47:22.073Z,15.62
2023-04-01T13:48:23.915Z,16.10
2023-04-01T13:49:43.209Z,16.45
2023-04-01T13:50:57.212Z,16.84
2023-04-01T13:52:05.267Z,17.17
2023-04-01T13:53:16.104Z,17.44
2023-04-01T13:54:33.098Z,17.55
2023-04-01T13:55:35.363Z,17.54
2023-04-01T13:56:43.216Z,17.48
2023-04-01T13:57:56.084Z,17.54
2023-04-01T13:59:16.577Z,17.53
2023-04-01T14:00:24.843Z,17.64
2023-04-01T14:01:36.941Z,17.57
2023-04-01T14:02:57.858Z,17.56
2023-04-01T14:04:21.945Z,17.51
2023-04-01T14:05:43.217Z,17.46
2023-04-01T14:07:09.822Z,17.23
2023-04-01T14:08:34.799Z,17.10
2023-04-01T14:10:01.688Z,16.80
2023-04-01T14:11:06.525Z,16.40
2023-04-01T14:12:14.490Z,16.22
2023-04-01T14:13:25.610Z,16.11
2023-04-01T14:14:30.243Z,15.90
2023-04-01T14:15:32.375Z,15.73
2023-04-01T14:17:02.082Z,15.57
2023-04-01T14:18:22.511Z,15.38
2023-04-01T14:19:39.643Z,15.22
2023-04-01T14:20:44.552Z,15.15
2023-04-01T14:22:05.188Z,15.13
2023-04-01T14:23:25.825Z,15.14
2023-04-01T14:24:37.660Z,15.10
2023-04-01T14:25:57.932Z,14.99
2023-04-01T14:26:59.637Z,14.88
2023-04-01T14:28:04.227Z,14.89
2023-04-01T14:29:09.154Z,14.81
2023-04-01T14:30:23.201Z,14.81
2023-04-01T14:31:30.732Z,14.88
2023-04-01T14:32:40.834Z,14.85
2023-04-01T14:33:45.696Z,14.80
2023-04-01T14:34:47.497Z,14.78
2023-04-01T14:35:49.202Z,14.75
2023-04-01T14:36:51.547Z,14.64
2023-04-01T14:38:02.517Z,14.62
2023-04-01T14:39:04.269Z,14.60
2023-04-01T14:40:24.411Z,14.49
2023-04-01T14:41:27.465Z,14.39
2023-04-01T14:42:29.231Z,14.37
2023-04-01T14:43:46.031Z,14.37
2023-04-01T14:45:03.618Z,14.33
2023-04-01T14:46:05.579Z,14.28
2023-04-01T14:47:29.936Z,14.20
2023-04-01T14:48:34.656Z,14.05
2023-04-01T14:49:36.532Z,14.01
2023-04-01T14:50:47.887Z,13.99
2023-04-01T14:51:49.871Z,13.95
2023-04-01T14:53:10.587Z,13.95
2023-04-01T14:54:12.264Z,13.90
2023-04-01T14:55:35.939Z,13.90
2023-04-01T14:56:37.875Z,13.89